createdAt,value
2017-06-21T00:01:25.929Z,49.10
2017-06-21T00:03:53.592Z,49.00
2017-06-21T00:06:21.259Z,49.20
2017-06-21T00:08:48.899Z,49.40
2017-06-21T00:11:16.471Z,49.30
2017-06-21T00:13:44.032Z,49.30
2017-06-21T00:16:11.587Z,49.20
2017-06-21T00:18:39.242Z,49.10
2017-06-21T00:21:06.911Z,49.20
2017-06-21T00:23:34.576Z,49.10
2017-06-21T00:26:02.229Z,49.10
2017-06-21T00:28:29.899Z,49.30
2017-06-21T00:30:57.561Z,49.60
2017-06-21T00:33:25.107Z,49.60
2017-06-21T00:35:52.782Z,49.50
2017-06-21T00:38:20.441Z,49.90
2017-06-21T00:40:48.098Z,49.60
2017-06-21T00:43:15.775Z,49.50
2017-06-21T00:45:43.423Z,49.30
2017-06-21T00:48:10.959Z,49.40
2017-06-21T00:50:38.486Z,49.10
2017-06-21T00:53:06.815Z,49.30
2017-06-21T00:55:34.377Z,49.20
2017-06-21T00:58:02.037Z,49.40
2017-06-21T01:00:29.788Z,49.30
2017-06-21T01:02:57.359Z,48.70
2017-06-21T01:05:25.015Z,48.30
2017-06-21T01:07:52.583Z,47.50
2017-06-21T01:10:20.121Z,47.60
2017-06-21T01:12:47.659Z,47.00
2017-06-21T01:15:15.260Z,46.50
2017-06-21T01:17:42.828Z,46.30
2017-06-21T01:20:10.479Z,45.70
2017-06-21T01:22:38.043Z,45.00
2017-06-21T01:25:05.584Z,45.50
2017-06-21T01:27:33.155Z,45.10
2017-06-21T01:30:00.715Z,45.20
2017-06-21T01:32:28.271Z,45.20
2017-06-21T01:34:55.817Z,45.40
2017-06-21T01:37:23.391Z,45.20
2017-06-21T01:39:50.931Z,45.20
2017-06-21T01:42:18.553Z,45.10
2017-06-21T01:44:46.889Z,45.00
2017-06-21T01:47:14.448Z,45.00
2017-06-21T01:49:41.978Z,45.20
2017-06-21T01:52:09.653Z,45.60
2017-06-21T01:54:37.195Z,45.50
2017-06-21T01:57:04.798Z,46.40
2017-06-21T01:59:32.356Z,45.60
2017-06-21T02:01:59.896Z,45.60
2017-06-21T02:04:27.446Z,45.40
2017-06-21T02:06:55.020Z,46.20
2017-06-21T02:09:22.678Z,45.30
2017-06-21T02:11:50.239Z,45.20
2017-06-21T02:14:17.800Z,45.30
2017-06-21T02:16:45.459Z,45.10
2017-06-21T02:19:13.125Z,45.00
2017-06-21T02:21:40.676Z,44.70
2017-06-21T02:24:08.238Z,44.60
2017-06-21T02:26:35.906Z,44.60
2017-06-21T02:29:03.554Z,44.60
2017-06-21T02:31:31.091Z,44.90
2017-06-21T02:33:58.680Z,44.50
2017-06-21T02:36:26.343Z,44.40
2017-06-21T02:38:53.995Z,44.70
2017-06-21T02:41:21.564Z,44.30
2017-06-21T02:43:49.236Z,44.30
2017-06-21T02:46:16.884Z,44.40
2017-06-21T02:48:44.420Z,44.30
2017-06-21T02:51:11.955Z,44.30
2017-06-21T02:53:40.380Z,43.90
2017-06-21T02:56:08.039Z,43.90
2017-06-21T02:58:35.586Z,44.10
2017-06-21T03:01:03.259Z,44.20
2017-06-21T03:03:30.802Z,44.00
2017-06-21T03:05:58.380Z,44.30
2017-06-21T03:08:25.943Z,44.50
2017-06-21T03:10:53.495Z,44.60
2017-06-21T03:13:21.055Z,44.50
2017-06-21T03:15:48.617Z,44.50
2017-06-21T03:18:16.175Z,44.50
2017-06-21T03:20:43.736Z,44.50
2017-06-21T03:23:11.292Z,44.20
2017-06-21T03:25:38.850Z,44.00
2017-06-21T03:28:06.406Z,44.40
2017-06-21T03:30:33.969Z,44.40
2017-06-21T03:33:01.529Z,44.90
2017-06-21T03:35:29.187Z,44.90
2017-06-21T03:37:56.748Z,44.50
2017-06-21T03:40:24.306Z,44.80
2017-06-21T03:42:51.842Z,44.40
2017-06-21T03:45:19.429Z,44.70
2017-06-21T03:47:46.976Z,44.70
2017-06-21T03:50:14.540Z,44.60
2017-06-21T03:52:42.104Z,44.30
2017-06-21T03:55:09.662Z,44.60
2017-06-21T03:57:37.215Z,44.60
2017-06-21T04:00:05.010Z,45.00
2017-06-21T04:02:32.547Z,45.20
2017-06-21T04:05:00.103Z,44.80
2017-06-21T04:07:27.662Z,45.30
2017-06-21T04:09:55.190Z,45.10
2017-06-21T04:12:22.775Z,45.20
2017-06-21T04:14:50.335Z,45.10
2017-06-21T04:17:17.895Z,45.10
2017-06-21T04:19:45.452Z,45.40
2017-06-21T04:22:13.012Z,44.90
2017-06-21T04:24:40.557Z,44.80
2017-06-21T04:27:08.131Z,44.70
2017-06-21T04:29:35.663Z,44.70
2017-06-21T04:32:03.252Z,45.00
2017-06-21T04:34:30.809Z,44.80
2017-06-21T04:36:58.467Z,44.50
2017-06-21T04:39:25.999Z,44.10
2017-06-21T04:41:53.588Z,44.00
2017-06-21T04:44:21.151Z,44.50
2017-06-21T04:46:48.703Z,44.60
2017-06-21T04:49:16.455Z,44.00
2017-06-21T04:51:44.036Z,44.50
2017-06-21T04:54:11.571Z,44.50
2017-06-21T04:56:39.147Z,44.70
2017-06-21T04:59:06.703Z,44.30
2017-06-21T05:01:34.258Z,44.30
2017-06-21T05:04:01.819Z,44.00
2017-06-21T05:06:29.383Z,44.10
2017-06-21T05:08:56.916Z,43.20
2017-06-21T05:11:24.451Z,42.10
2017-06-21T05:13:52.779Z,41.50
2017-06-21T05:16:20.336Z,41.40
2017-06-21T05:18:47.887Z,41.50
2017-06-21T05:21:15.452Z,41.50
2017-06-21T05:23:43.007Z,41.10
2017-06-21T05:26:10.567Z,41.50
2017-06-21T05:28:51.322Z,41.20
2017-06-21T05:31:22.570Z,40.60
2017-06-21T05:33:50.139Z,40.50
2017-06-21T05:36:17.703Z,41.30
2017-06-21T05:38:46.081Z,42.10
2017-06-21T05:41:13.643Z,42.00
2017-06-21T05:43:41.295Z,41.20
2017-06-21T05:46:09.097Z,41.10
2017-06-21T05:48:36.948Z,41.40
2017-06-21T05:51:04.678Z,40.90
2017-06-21T05:53:32.211Z,40.20
2017-06-21T05:55:59.808Z,40.00
2017-06-21T05:58:27.368Z,41.50
2017-06-21T06:00:54.932Z,41.30
2017-06-21T06:03:22.515Z,41.60
2017-06-21T06:05:50.146Z,41.30
2017-06-21T06:08:17.808Z,41.70
2017-06-21T06:10:50.699Z,41.10
2017-06-21T06:13:18.649Z,40.80
2017-06-21T06:15:47.306Z,41.10
2017-06-21T06:18:14.962Z,41.00
2017-06-21T06:20:43.288Z,40.40
2017-06-21T06:23:10.839Z,40.30
2017-06-21T06:25:38.399Z,39.90
2017-06-21T06:28:05.959Z,40.20
2017-06-21T06:30:33.519Z,40.30
2017-06-21T06:33:01.061Z,40.50
2017-06-21T06:35:28.635Z,40.60
2017-06-21T06:37:56.281Z,40.20
2017-06-21T06:40:23.842Z,40.10
2017-06-21T06:42:51.400Z,39.80
2017-06-21T06:45:19.218Z,39.90
2017-06-21T06:47:47.742Z,40.70
2017-06-21T06:50:15.437Z,40.10
2017-06-21T06:52:43.072Z,40.00
2017-06-21T06:55:10.635Z,39.90
2017-06-21T06:57:38.190Z,39.10
2017-06-21T07:00:05.749Z,39.30
2017-06-21T07:02:33.317Z,39.00
2017-06-21T07:05:00.847Z,40.10
2017-06-21T07:07:28.434Z,40.40
2017-06-21T07:09:56.085Z,40.20
2017-06-21T07:12:23.649Z,39.70
2017-06-21T07:14:51.307Z,38.40
2017-06-21T07:17:18.870Z,38.60
2017-06-21T07:19:46.393Z,38.80
2017-06-21T07:22:14.080Z,39.90
2017-06-21T07:24:41.654Z,39.60
2017-06-21T07:27:09.304Z,39.90
2017-06-21T07:29:36.966Z,39.40
2017-06-21T07:32:04.530Z,39.10
2017-06-21T07:34:32.061Z,39.10
2017-06-21T07:36:59.585Z,39.20
2017-06-21T07:39:27.318Z,39.00
2017-06-21T07:41:54.875Z,40.20
2017-06-21T07:44:22.407Z,38.30
2017-06-21T07:46:50.038Z,39.00
2017-06-21T07:49:18.373Z,39.20
2017-06-21T07:51:45.912Z,39.10
2017-06-21T07:54:13.486Z,39.80
2017-06-21T07:56:41.042Z,39.30
2017-06-21T07:59:08.603Z,39.50
2017-06-21T08:01:36.164Z,40.20
2017-06-21T08:04:03.719Z,40.20
2017-06-21T08:06:31.275Z,39.70
2017-06-21T08:08:58.810Z,40.00
2017-06-21T08:11:26.392Z,39.50
2017-06-21T08:13:53.951Z,39.40
2017-06-21T08:16:21.609Z,39.30
2017-06-21T08:18:49.178Z,39.60
2017-06-21T08:21:16.738Z,39.20
2017-06-21T08:23:44.285Z,39.00
2017-06-21T08:26:11.850Z,39.50
2017-06-21T08:28:39.505Z,39.40
2017-06-21T08:31:07.077Z,38.90
2017-06-21T08:33:34.603Z,39.10
2017-06-21T08:36:02.186Z,38.90
2017-06-21T08:38:29.725Z,38.20
2017-06-21T08:40:57.311Z,38.90
2017-06-21T08:43:24.861Z,39.60
2017-06-21T08:45:52.383Z,39.20
2017-06-21T08:48:20.710Z,38.10
2017-06-21T08:50:48.262Z,38.00
2017-06-21T08:53:15.921Z,39.00
2017-06-21T08:55:43.478Z,39.90
2017-06-21T08:58:11.009Z,39.10
2017-06-21T09:00:38.542Z,38.40
2017-06-21T09:03:06.870Z,39.30
2017-06-21T09:05:34.426Z,38.50
2017-06-21T09:08:01.994Z,38.40
2017-06-21T09:10:29.546Z,37.80
2017-06-21T09:12:57.106Z,37.00
2017-06-21T09:15:24.639Z,36.80
2017-06-21T09:17:52.169Z,37.60
2017-06-21T09:20:20.502Z,38.40
2017-06-21T09:22:48.032Z,37.60
2017-06-21T09:25:15.622Z,37.50
2017-06-21T09:27:43.177Z,36.90
2017-06-21T09:30:10.834Z,37.40
2017-06-21T09:32:38.362Z,37.90
2017-06-21T09:35:06.650Z,36.90
2017-06-21T09:37:34.243Z,36.90
2017-06-21T09:40:01.794Z,37.50
2017-06-21T09:42:29.450Z,36.20
2017-06-21T09:44:56.974Z,35.50
2017-06-21T09:47:25.287Z,34.90
2017-06-21T09:49:52.830Z,34.90
2017-06-21T09:52:20.402Z,34.50
2017-06-21T09:54:47.933Z,34.90
2017-06-21T09:57:15.529Z,34.80
2017-06-21T09:59:43.061Z,35.00
2017-06-21T10:02:10.637Z,34.60
2017-06-21T10:04:38.198Z,34.70
2017-06-21T10:07:05.857Z,33.90
2017-06-21T10:09:33.455Z,34.30
2017-06-21T10:12:00.986Z,35.70
2017-06-21T10:14:28.542Z,34.50
2017-06-21T10:16:56.093Z,34.60
2017-06-21T10:19:23.630Z,33.00
2017-06-21T10:21:51.221Z,34.30
2017-06-21T10:24:18.774Z,34.50
2017-06-21T10:26:46.334Z,33.40
2017-06-21T10:29:13.890Z,33.30
2017-06-21T10:31:41.665Z,32.40
2017-06-21T10:34:09.222Z,31.70
2017-06-21T10:36:36.778Z,32.20
2017-06-21T10:39:04.306Z,31.70
2017-06-21T10:41:31.833Z,31.80
2017-06-21T10:43:59.448Z,32.20
2017-06-21T10:46:27.933Z,32.10
2017-06-21T10:48:55.485Z,31.60
2017-06-21T10:51:23.050Z,32.10
2017-06-21T10:53:50.602Z,31.60
2017-06-21T10:56:18.165Z,31.10
2017-06-21T10:58:45.730Z,32.00
2017-06-21T11:01:13.257Z,32.40
2017-06-21T11:03:40.848Z,32.70
2017-06-21T11:06:08.402Z,31.80
2017-06-21T11:08:35.942Z,31.50
2017-06-21T11:11:03.517Z,31.20
2017-06-21T11:13:31.073Z,31.60
2017-06-21T11:15:58.638Z,32.20
2017-06-21T11:18:26.165Z,31.20
2017-06-21T11:20:53.758Z,30.80
2017-06-21T11:23:21.323Z,29.90
2017-06-21T11:25:48.873Z,29.60
2017-06-21T11:28:16.433Z,29.80
2017-06-21T11:30:44.001Z,30.60
2017-06-21T11:33:11.654Z,30.40
2017-06-21T11:35:39.209Z,29.30
2017-06-21T11:38:06.765Z,30.00
2017-06-21T11:40:34.329Z,28.60
2017-06-21T11:43:01.890Z,28.70
2017-06-21T11:45:29.546Z,28.70
2017-06-21T11:47:57.072Z,28.00
2017-06-21T11:50:25.385Z,29.20
2017-06-21T11:52:52.950Z,29.10
2017-06-21T11:55:20.489Z,28.00
2017-06-21T11:57:48.057Z,27.60
2017-06-21T12:00:15.618Z,27.40
2017-06-21T12:02:43.185Z,26.60
2017-06-21T12:05:10.737Z,27.30
2017-06-21T12:07:38.295Z,26.80
2017-06-21T12:10:05.957Z,27.40
2017-06-21T12:12:33.513Z,26.40
2017-06-21T12:15:01.079Z,26.80
2017-06-21T12:17:28.633Z,26.80
2017-06-21T12:19:56.196Z,25.00
2017-06-21T12:22:23.851Z,25.20
2017-06-21T12:24:51.374Z,25.80
2017-06-21T12:27:19.685Z,24.60
2017-06-21T12:29:47.250Z,24.60
2017-06-21T12:32:14.785Z,25.20
2017-06-21T12:34:42.369Z,24.40
2017-06-21T12:37:09.934Z,24.40
2017-06-21T12:39:37.482Z,24.80
2017-06-21T12:42:05.048Z,24.30
2017-06-21T12:44:32.569Z,25.10
2017-06-21T12:47:00.984Z,25.70
2017-06-21T12:49:28.544Z,25.70
2017-06-21T12:51:56.105Z,25.40
2017-06-21T12:54:23.722Z,24.10
2017-06-21T12:56:52.039Z,24.60
2017-06-21T12:59:19.694Z,24.60
2017-06-21T13:01:47.253Z,23.80
2017-06-21T13:04:14.817Z,23.50
2017-06-21T13:06:42.374Z,24.60
2017-06-21T13:09:09.935Z,25.40
2017-06-21T13:11:37.599Z,25.70
2017-06-21T13:14:05.154Z,23.00
2017-06-21T13:16:32.722Z,24.10
2017-06-21T13:19:00.270Z,24.00
2017-06-21T13:21:27.842Z,24.20
2017-06-21T13:23:55.385Z,22.90
2017-06-21T13:26:22.950Z,22.80
2017-06-21T13:28:50.514Z,24.80
2017-06-21T13:31:18.065Z,24.20
2017-06-21T13:33:45.625Z,24.40
2017-06-21T13:36:13.186Z,24.20
2017-06-21T13:38:40.746Z,24.30
2017-06-21T13:41:08.305Z,23.20
2017-06-21T13:43:35.873Z,23.50
2017-06-21T13:46:03.423Z,22.60
2017-06-21T13:48:30.977Z,23.10
2017-06-21T13:50:58.537Z,24.10
2017-06-21T13:53:26.097Z,24.30
2017-06-21T13:55:53.653Z,24.10
2017-06-21T13:58:21.213Z,24.00
2017-06-21T14:00:48.734Z,24.90
2017-06-21T14:03:17.049Z,23.20
2017-06-21T14:05:44.610Z,23.10
2017-06-21T14:08:12.169Z,23.60
2017-06-21T14:10:39.720Z,23.80
2017-06-21T14:13:07.247Z,23.40
2017-06-21T14:15:35.574Z,23.10
2017-06-21T14:18:03.122Z,23.00
2017-06-21T14:20:30.681Z,22.40
2017-06-21T14:22:58.246Z,22.70
2017-06-21T14:25:25.911Z,22.70
2017-06-21T14:27:53.443Z,22.50
2017-06-21T14:30:20.962Z,22.40
2017-06-21T14:32:48.494Z,22.00
2017-06-21T14:35:16.030Z,22.50
2017-06-21T14:37:43.590Z,22.60
2017-06-21T14:40:11.122Z,23.00
2017-06-21T14:42:38.707Z,22.40
2017-06-21T14:45:06.295Z,22.10
2017-06-21T14:47:33.946Z,23.40
2017-06-21T14:50:01.476Z,22.60
2017-06-21T14:52:29.060Z,22.20
2017-06-21T14:54:56.605Z,22.20
2017-06-21T14:57:24.170Z,22.40
2017-06-21T14:59:51.730Z,23.30
2017-06-21T15:02:19.295Z,21.90
2017-06-21T15:04:46.859Z,21.80
2017-06-21T15:07:14.401Z,21.50
2017-06-21T15:09:41.961Z,21.90
2017-06-21T15:12:09.534Z,21.80
2017-06-21T15:14:37.078Z,22.30
2017-06-21T15:17:04.638Z,22.30
2017-06-21T15:19:32.161Z,21.20
2017-06-21T15:22:00.473Z,22.00
2017-06-21T15:24:28.047Z,21.90
2017-06-21T15:26:55.574Z,22.30
2017-06-21T15:29:23.159Z,22.60
2017-06-21T15:31:50.719Z,22.20
2017-06-21T15:34:18.282Z,22.70
2017-06-21T15:36:45.938Z,23.40
2017-06-21T15:39:13.499Z,23.50
2017-06-21T15:41:41.059Z,23.10
2017-06-21T15:44:08.620Z,23.10
2017-06-21T15:46:36.189Z,23.60
2017-06-21T15:49:03.735Z,23.60
2017-06-21T15:51:31.295Z,24.00
2017-06-21T15:53:58.843Z,24.10
2017-06-21T15:56:26.383Z,23.70
2017-06-21T15:58:53.970Z,23.20
2017-06-21T16:01:21.635Z,22.60
2017-06-21T16:03:49.191Z,23.50
2017-06-21T16:06:16.751Z,23.60
2017-06-21T16:08:44.323Z,23.50
2017-06-21T16:11:11.875Z,23.50
2017-06-21T16:13:39.535Z,23.50
2017-06-21T16:16:07.096Z,23.30
2017-06-21T16:18:34.636Z,23.30
2017-06-21T16:21:02.212Z,23.00
2017-06-21T16:23:29.770Z,23.00
2017-06-21T16:25:57.434Z,22.50
2017-06-21T16:28:25.094Z,22.50
2017-06-21T16:33:39.051Z,22.70
2017-06-21T16:36:06.712Z,23.40
2017-06-21T16:38:34.250Z,23.30
2017-06-21T16:41:01.964Z,23.50
2017-06-21T16:43:29.507Z,23.10
2017-06-21T16:45:57.155Z,23.20
2017-06-21T16:48:24.716Z,23.00
2017-06-21T16:50:52.271Z,24.20
2017-06-21T16:53:19.931Z,23.70
2017-06-21T16:55:47.495Z,24.40
2017-06-21T16:58:15.151Z,24.30
2017-06-21T17:00:42.719Z,23.90
2017-06-21T17:03:10.273Z,24.00
2017-06-21T17:05:37.837Z,24.20
2017-06-21T17:08:05.431Z,24.50
2017-06-21T17:10:33.769Z,25.20
2017-06-21T17:13:01.320Z,25.20
2017-06-21T17:15:28.896Z,24.10
2017-06-21T17:17:56.429Z,24.20
2017-06-21T17:20:24.007Z,25.30
2017-06-21T17:22:51.543Z,24.70
2017-06-21T17:25:19.127Z,24.90
2017-06-21T17:27:46.673Z,24.90
2017-06-21T17:30:14.243Z,25.40
2017-06-21T17:32:41.803Z,25.40
2017-06-21T17:35:09.362Z,25.30
2017-06-21T17:37:37.735Z,25.40
2017-06-21T17:40:05.284Z,25.50
2017-06-21T17:42:32.859Z,25.60
2017-06-21T17:45:00.414Z,26.20
2017-06-21T17:47:27.975Z,26.10
2017-06-21T17:49:55.531Z,26.90
2017-06-21T17:52:23.079Z,26.70
2017-06-21T17:54:50.634Z,26.30
2017-06-21T17:57:18.207Z,27.20
2017-06-21T17:59:45.772Z,27.40
2017-06-21T18:02:13.323Z,26.70
2017-06-21T18:04:40.883Z,27.40
2017-06-21T18:07:08.449Z,27.20
2017-06-21T18:09:36.007Z,27.50
2017-06-21T18:12:03.559Z,27.40
2017-06-21T18:14:31.091Z,27.00
2017-06-21T18:16:58.681Z,27.80
2017-06-21T18:19:26.244Z,27.90
2017-06-21T18:21:53.817Z,27.70
2017-06-21T18:24:21.355Z,27.70
2017-06-21T18:26:48.917Z,27.80
2017-06-21T18:29:16.476Z,27.90
2017-06-21T18:31:44.040Z,28.30
2017-06-21T18:34:11.592Z,28.80
2017-06-21T18:36:39.150Z,28.80
2017-06-21T18:39:06.800Z,28.70
2017-06-21T18:41:34.376Z,29.00
2017-06-21T18:44:01.935Z,28.90
2017-06-21T18:46:29.500Z,29.00
2017-06-21T18:48:57.036Z,29.30
2017-06-21T18:51:24.608Z,29.60
2017-06-21T18:53:52.184Z,29.40
2017-06-21T18:56:19.832Z,29.80
2017-06-21T18:58:47.381Z,29.80
2017-06-21T19:01:14.947Z,30.00
2017-06-21T19:03:42.478Z,30.30
2017-06-21T19:06:10.064Z,30.50
2017-06-21T19:08:37.631Z,30.70
2017-06-21T19:11:05.199Z,30.80
2017-06-21T19:13:32.843Z,31.00
2017-06-21T19:16:00.403Z,31.10
2017-06-21T19:18:27.964Z,31.10
2017-06-21T19:20:55.524Z,31.10
2017-06-21T19:23:23.103Z,31.50
2017-06-21T19:25:50.654Z,31.90
2017-06-21T19:28:18.183Z,31.70
2017-06-21T19:30:45.759Z,31.30
2017-06-21T19:33:13.296Z,31.70
2017-06-21T19:35:40.870Z,31.80
2017-06-21T19:38:08.435Z,32.10
2017-06-21T19:40:35.973Z,32.20
2017-06-21T19:43:03.553Z,32.10
2017-06-21T19:45:31.108Z,32.30
2017-06-21T19:47:58.691Z,32.30
2017-06-21T19:50:26.333Z,32.40
2017-06-21T19:52:53.891Z,31.80
2017-06-21T19:55:21.452Z,32.50
2017-06-21T19:57:48.987Z,32.30
2017-06-21T20:00:16.525Z,32.80
2017-06-21T20:02:44.124Z,33.00
2017-06-21T20:05:11.659Z,33.30
2017-06-21T20:07:39.244Z,33.40
2017-06-21T20:10:06.811Z,33.40
2017-06-21T20:12:34.377Z,33.80
2017-06-21T20:15:02.024Z,34.00
2017-06-21T20:17:29.580Z,34.10
2017-06-21T20:19:57.244Z,34.60
2017-06-21T20:22:24.809Z,34.90
2017-06-21T20:24:52.359Z,34.90
2017-06-21T20:27:19.914Z,35.20
2017-06-21T20:29:47.478Z,35.30
2017-06-21T20:32:15.135Z,35.30
2017-06-21T20:34:42.699Z,35.40
2017-06-21T20:37:10.242Z,35.50
2017-06-21T20:39:37.815Z,35.60
2017-06-21T20:42:05.370Z,35.80
2017-06-21T20:44:32.935Z,36.10
2017-06-21T20:47:00.491Z,35.90
2017-06-21T20:49:28.074Z,36.30
2017-06-21T20:51:55.712Z,36.40
2017-06-21T20:54:23.247Z,36.70
2017-06-21T20:56:50.827Z,36.90
2017-06-21T20:59:18.388Z,37.10
2017-06-21T21:01:46.038Z,37.20
2017-06-21T21:04:13.617Z,37.00
2017-06-21T21:06:41.167Z,37.20
2017-06-21T21:09:08.931Z,37.90
2017-06-21T21:11:36.490Z,37.20
2017-06-21T21:14:04.052Z,37.00
2017-06-21T21:16:31.583Z,37.00
2017-06-21T21:18:59.166Z,37.50
2017-06-21T21:21:26.727Z,37.90
2017-06-21T21:23:54.287Z,37.90
2017-06-21T21:26:21.843Z,37.80
2017-06-21T21:28:49.403Z,37.80
2017-06-21T21:31:16.963Z,38.30
2017-06-21T21:33:44.623Z,37.80
2017-06-21T21:36:12.184Z,38.40
2017-06-21T21:38:39.744Z,38.40
2017-06-21T21:41:07.288Z,38.40
2017-06-21T21:43:34.871Z,38.80
2017-06-21T21:46:02.531Z,38.60
2017-06-21T21:48:30.087Z,38.70
2017-06-21T21:50:57.641Z,38.70
2017-06-21T21:53:25.198Z,38.80
2017-06-21T21:55:52.738Z,39.00
2017-06-21T21:58:20.315Z,39.10
2017-06-21T22:00:47.871Z,39.30
2017-06-21T22:03:15.430Z,39.60
2017-06-21T22:05:42.995Z,39.70
2017-06-21T22:08:10.551Z,39.40
2017-06-21T22:10:38.099Z,39.40
2017-06-21T22:13:05.671Z,39.80
2017-06-21T22:15:33.227Z,40.10
2017-06-21T22:18:00.759Z,39.90
2017-06-21T22:20:28.347Z,40.10
2017-06-21T22:22:56.010Z,40.40
2017-06-21T22:25:23.563Z,40.60
2017-06-21T22:27:51.110Z,41.30
2017-06-21T22:30:18.687Z,41.00
2017-06-21T22:32:46.243Z,41.10
2017-06-21T22:35:13.787Z,41.20
2017-06-21T22:37:41.358Z,41.50
2017-06-21T22:40:08.931Z,41.70
2017-06-21T22:42:36.483Z,41.80
2017-06-21T22:45:04.039Z,41.70
2017-06-21T22:47:31.694Z,41.80
2017-06-21T22:49:59.240Z,41.80
2017-06-21T22:52:26.815Z,42.00
2017-06-21T22:54:54.375Z,42.50
2017-06-21T22:57:21.932Z,42.30
2017-06-21T22:59:49.491Z,42.40
2017-06-21T23:02:17.051Z,42.60
2017-06-21T23:04:44.595Z,42.50
2017-06-21T23:07:12.171Z,42.70
2017-06-21T23:09:39.711Z,42.80
2017-06-21T23:12:07.291Z,42.60
2017-06-21T23:14:34.839Z,42.80
2017-06-21T23:17:02.378Z,43.00
2017-06-21T23:19:29.963Z,43.10
2017-06-21T23:21:57.527Z,43.10
2017-06-21T23:24:25.184Z,43.40
2017-06-21T23:26:52.745Z,43.30
2017-06-21T23:29:20.301Z,43.30
2017-06-21T23:31:47.859Z,43.60
2017-06-21T23:34:15.423Z,43.80
2017-06-21T23:36:43.093Z,44.10
2017-06-21T23:39:10.628Z,44.20
2017-06-21T23:41:38.199Z,44.20
2017-06-21T23:44:05.731Z,44.00
2017-06-21T23:46:33.315Z,44.20
2017-06-21T23:49:00.979Z,44.20
2017-06-21T23:51:28.559Z,44.20
2017-06-21T23:53:56.199Z,44.30
2017-06-21T23:56:23.760Z,44.50
2017-06-21T23:58:51.301Z,44.50
